Time;durP1;ratioP1;P1;durP2;ratioP2;P2;SDS_P1;SDS_P2;PMS_P1;PMS_P2;Temp;Humidity;BMP_temperature;BMP_pressure;BME280_temperature;BME280_humidity;BME280_pressure;Samples;Min_cycle;Max_cycle;Signal;HPM_P1;HPM_P2
2022/09/30 00:01:44;;;;;;;13.90;10.43;;;7.20;99.90;;;;;;4998374;28;20198;-71
2022/09/30 00:04:16;;;;;;;12.57;10.32;;;7.20;99.90;;;;;;5010276;28;20272;-68
2022/09/30 00:06:45;;;;;;;14.30;11.60;;;7.20;99.90;;;;;;5003722;28;20215;-69
2022/09/30 00:09:15;;;;;;;15.25;11.20;;;7.30;99.90;;;;;;4992376;28;20195;-69
2022/09/30 00:11:45;;;;;;;16.17;10.73;;;7.20;99.90;;;;;;5012409;22;20225;-69
2022/09/30 00:14:16;;;;;;;22.08;12.68;;;7.10;99.90;;;;;;5003978;28;20217;-69
2022/09/30 00:16:45;;;;;;;13.20;10.52;;;7.00;99.90;;;;;;5012133;28;20225;-69
2022/09/30 00:19:15;;;;;;;16.17;11.60;;;6.90;99.90;;;;;;5013576;28;20263;-69
2022/09/30 00:21:44;;;;;;;13.15;11.60;;;6.80;99.90;;;;;;5012991;28;20229;-71
2022/09/30 00:24:13;;;;;;;17.33;12.18;;;6.80;99.90;;;;;;5007247;28;20198;-69
2022/09/30 00:26:41;;;;;;;16.90;10.90;;;6.80;99.90;;;;;;5013157;28;20210;-69
2022/09/30 00:29:10;;;;;;;15.23;11.48;;;6.70;99.90;;;;;;5013376;28;20294;-69
2022/09/30 00:31:39;;;;;;;17.88;11.95;;;6.80;99.90;;;;;;5013352;28;20202;-69
2022/09/30 00:34:10;;;;;;;14.75;11.00;;;6.70;99.90;;;;;;5013001;28;20197;-69
2022/09/30 00:36:43;;;;;;;17.38;12.77;;;6.70;99.90;;;;;;5013175;28;20186;-70
2022/09/30 00:39:14;;;;;;;18.85;11.88;;;6.70;99.90;;;;;;5006567;28;20788;-70
2022/09/30 00:41:45;;;;;;;16.88;11.55;;;6.80;99.90;;;;;;5013179;28;20231;-70
2022/09/30 00:44:45;;;;;;;17.02;12.13;;;6.80;99.90;;;;;;5013048;28;20339;-69
2022/09/30 00:47:35;;;;;;;16.42;10.77;;;6.80;99.90;;;;;;5000806;28;20203;-70
2022/09/30 00:50:13;;;;;;;13.00;11.13;;;6.70;99.90;;;;;;5001821;28;20691;-69
2022/09/30 00:52:46;;;;;;;13.45;11.18;;;6.60;99.90;;;;;;4999210;28;20560;-70
2022/09/30 00:55:27;;;;;;;17.77;11.13;;;6.60;99.90;;;;;;5012890;28;20569;-69
2022/09/30 00:57:56;;;;;;;16.73;11.95;;;6.60;99.90;;;;;;5006657;28;20645;-69
2022/09/30 01:00:25;;;;;;;15.45;10.43;;;6.60;99.90;;;;;;5013405;28;20224;-70
2022/09/30 01:02:55;;;;;;;16.98;11.18;;;6.70;99.90;;;;;;5010677;28;20205;-69
2022/09/30 01:05:26;;;;;;;20.10;10.05;;;6.70;99.90;;;;;;5011529;28;20221;-69
2022/09/30 01:07:59;;;;;;;12.32;9.20;;;6.70;99.90;;;;;;5006624;28;20218;-70
2022/09/30 01:10:28;;;;;;;17.88;11.07;;;6.60;99.90;;;;;;5012768;28;20201;-70
2022/09/30 01:12:57;;;;;;;12.02;9.65;;;6.60;99.90;;;;;;4999588;28;20195;-70
2022/09/30 01:15:44;;;;;;;12.20;10.05;;;6.60;99.90;;;;;;4994710;28;20222;-70
2022/09/30 01:18:20;;;;;;;15.13;10.82;;;6.60;99.90;;;;;;5007675;28;20197;-69
2022/09/30 01:21:23;;;;;;;13.60;9.98;;;6.50;99.90;;;;;;5010145;28;20199;-70
2022/09/30 01:24:23;;;;;;;14.32;10.70;;;6.50;99.90;;;;;;5006211;28;20200;-69
2022/09/30 01:27:12;;;;;;;13.45;10.95;;;6.50;99.90;;;;;;4985224;28;20226;-69
2022/09/30 01:30:09;;;;;;;15.63;10.10;;;6.40;99.90;;;;;;5012030;28;20208;-70
2022/09/30 01:33:16;;;;;;;13.13;10.60;;;6.50;99.90;;;;;;5005100;28;20564;-69
2022/09/30 01:36:06;;;;;;;14.98;10.73;;;6.50;99.90;;;;;;5011807;28;20228;-69
2022/09/30 01:38:45;;;;;;;14.95;10.07;;;6.50;99.90;;;;;;5009841;28;20206;-70
2022/09/30 01:41:22;;;;;;;15.35;10.80;;;6.50;99.90;;;;;;5006281;28;20272;-70
2022/09/30 01:43:57;;;;;;;14.35;8.55;;;6.50;99.90;;;;;;5011896;28;20217;-70
2022/09/30 01:46:33;;;;;;;14.65;10.93;;;6.50;99.90;;;;;;5027249;28;20201;-70
2022/09/30 01:49:11;;;;;;;17.08;10.30;;;6.50;99.90;;;;;;5011197;28;20220;-70
2022/09/30 01:51:45;;;;;;;12.35;9.90;;;6.40;99.90;;;;;;5011527;28;20201;-70
2022/09/30 01:54:21;;;;;;;12.27;9.40;;;6.30;99.90;;;;;;5011529;28;20189;-70
2022/09/30 01:56:54;;;;;;;18.38;11.57;;;6.40;99.90;;;;;;4998936;28;20676;-69
2022/09/30 01:59:27;;;;;;;11.13;9.85;;;6.30;99.90;;;;;;4998964;28;20194;-68
2022/09/30 02:01:58;;;;;;;13.90;9.80;;;6.20;99.90;;;;;;5004924;28;20198;-69
2022/09/30 02:04:33;;;;;;;15.43;9.98;;;6.20;99.90;;;;;;5011788;28;20696;-70
2022/09/30 02:07:07;;;;;;;11.90;10.13;;;6.20;99.90;;;;;;5011599;28;20336;-70
2022/09/30 02:09:41;;;;;;;15.10;12.25;;;6.20;99.90;;;;;;5011560;28;20552;-70
2022/09/30 02:12:13;;;;;;;11.32;9.00;;;6.30;99.90;;;;;;5003230;28;20217;-70
2022/09/30 02:14:47;;;;;;;12.20;9.15;;;6.40;99.90;;;;;;5012568;28;20284;-70
2022/09/30 02:17:20;;;;;;;11.60;8.82;;;6.40;99.90;;;;;;5012484;28;20281;-70
2022/09/30 02:19:54;;;;;;;12.05;9.00;;;6.40;99.90;;;;;;5011862;28;20198;-69
2022/09/30 02:22:28;;;;;;;12.20;9.20;;;6.40;99.90;;;;;;5011338;28;20684;-69
2022/09/30 02:25:02;;;;;;;15.10;10.60;;;6.40;99.90;;;;;;5010999;28;20218;-69
2022/09/30 02:27:41;;;;;;;13.98;10.25;;;6.40;99.90;;;;;;5002324;28;20214;-70
2022/09/30 02:30:12;;;;;;;12.70;10.43;;;6.30;99.90;;;;;;5006570;28;20179;-70
2022/09/30 02:32:47;;;;;;;16.30;10.25;;;6.20;99.90;;;;;;5000782;28;20198;-68
2022/09/30 02:35:22;;;;;;;13.02;9.88;;;6.20;99.90;;;;;;5011080;28;20634;-69
2022/09/30 02:37:55;;;;;;;14.15;10.02;;;6.10;99.90;;;;;;5010842;28;20216;-70
2022/09/30 02:40:28;;;;;;;11.57;8.82;;;6.20;99.90;;;;;;5011799;28;20190;-69
2022/09/30 02:42:57;;;;;;;11.13;8.60;;;6.20;99.90;;;;;;5011216;28;20194;-69
2022/09/30 02:45:27;;;;;;;15.10;9.07;;;6.10;99.90;;;;;;5010707;28;20245;-69
2022/09/30 02:48:06;;;;;;;12.27;9.23;;;6.00;99.90;;;;;;5011036;28;20229;-69
2022/09/30 02:50:43;;;;;;;11.70;8.55;;;6.00;99.90;;;;;;4995319;28;20218;-69
2022/09/30 02:53:24;;;;;;;10.93;9.82;;;6.00;99.90;;;;;;5006270;28;20197;-69
2022/09/30 02:56:15;;;;;;;12.90;9.02;;;5.90;99.90;;;;;;5010976;28;20301;-70
2022/09/30 02:58:45;;;;;;;12.73;9.32;;;6.00;99.90;;;;;;5011215;28;20186;-70
2022/09/30 03:01:15;;;;;;;14.88;7.93;;;5.90;99.90;;;;;;5011184;28;20672;-68
2022/09/30 03:03:47;;;;;;;15.88;9.50;;;5.90;99.90;;;;;;5011072;28;20252;-70
2022/09/30 03:06:18;;;;;;;10.45;7.95;;;5.80;99.90;;;;;;5010804;28;20468;-69
2022/09/30 03:08:46;;;;;;;17.40;9.70;;;5.80;99.90;;;;;;5008902;28;20205;-69
2022/09/30 03:11:17;;;;;;;13.18;9.40;;;5.80;99.90;;;;;;5006465;28;20206;-68
2022/09/30 03:14:15;;;;;;;10.60;8.68;;;5.80;99.90;;;;;;5010268;28;20217;-68
2022/09/30 03:17:07;;;;;;;11.75;9.48;;;6.00;99.90;;;;;;5000876;28;20550;-68
2022/09/30 03:19:48;;;;;;;11.20;8.43;;;5.90;99.90;;;;;;5005809;28;20217;-68
2022/09/30 03:22:35;;;;;;;14.13;9.48;;;5.90;99.90;;;;;;5010943;28;20656;-69
2022/09/30 03:25:19;;;;;;;10.75;9.35;;;5.90;99.90;;;;;;5011129;28;20214;-69
2022/09/30 03:27:59;;;;;;;11.70;10.07;;;5.80;99.90;;;;;;5011297;28;20205;-68
2022/09/30 03:30:30;;;;;;;11.48;8.50;;;5.70;99.90;;;;;;5011356;28;20190;-69
2022/09/30 03:33:09;;;;;;;15.63;11.18;;;5.70;99.90;;;;;;5010989;28;20265;-70
2022/09/30 03:35:48;;;;;;;12.05;9.70;;;5.70;99.90;;;;;;5010634;28;20232;-68
2022/09/30 03:38:28;;;;;;;14.95;10.25;;;5.80;99.90;;;;;;5005842;28;20194;-69
2022/09/30 03:41:03;;;;;;;13.02;9.85;;;5.80;99.90;;;;;;5004818;28;20285;-70
2022/09/30 03:43:36;;;;;;;13.25;8.88;;;5.70;99.90;;;;;;5020870;28;20200;-69
2022/09/30 03:46:14;;;;;;;14.75;8.35;;;5.70;99.90;;;;;;5010389;28;20221;-69
2022/09/30 03:48:46;;;;;;;12.48;10.10;;;5.60;99.90;;;;;;4998003;28;20206;-69
2022/09/30 03:51:15;;;;;;;15.65;9.77;;;5.60;99.90;;;;;;5014521;28;20198;-69
2022/09/30 03:53:46;;;;;;;11.90;9.27;;;5.50;99.90;;;;;;5014446;28;20190;-69
2022/09/30 03:56:14;;;;;;;15.98;9.55;;;5.60;99.90;;;;;;5009165;28;20210;-69
2022/09/30 03:58:44;;;;;;;15.43;10.50;;;5.70;99.90;;;;;;5014168;28;20190;-69
2022/09/30 04:01:20;;;;;;;14.80;10.57;;;5.70;99.90;;;;;;5013969;28;20204;-68
2022/09/30 04:03:51;;;;;;;11.07;9.10;;;5.70;99.90;;;;;;5014097;28;20621;-69
2022/09/30 04:06:20;;;;;;;13.07;9.27;;;5.70;99.90;;;;;;5014052;28;20221;-69
2022/09/30 04:08:52;;;;;;;19.10;10.95;;;5.70;99.90;;;;;;5014208;28;20681;-68
2022/09/30 04:11:21;;;;;;;13.77;10.20;;;5.60;99.90;;;;;;5013818;28;20209;-69
2022/09/30 04:13:49;;;;;;;11.30;8.50;;;5.70;99.90;;;;;;5000735;28;20274;-68
2022/09/30 04:16:18;;;;;;;13.32;10.10;;;5.70;99.90;;;;;;5013347;28;20213;-68
2022/09/30 04:18:46;;;;;;;12.00;8.48;;;5.70;99.90;;;;;;5000655;28;20696;-68
2022/09/30 04:21:15;;;;;;;14.10;11.02;;;5.70;99.90;;;;;;5013964;28;20190;-68
2022/09/30 04:23:44;;;;;;;19.17;12.85;;;5.70;99.90;;;;;;5009004;28;20195;-68
2022/09/30 04:26:15;;;;;;;34.97;19.30;;;5.60;99.90;;;;;;5007193;28;20744;-69
2022/09/30 04:28:44;;;;;;;36.28;19.95;;;5.60;99.90;;;;;;5016615;28;20202;-69
2022/09/30 04:31:15;;;;;;;23.52;16.75;;;5.60;99.90;;;;;;5016515;28;20182;-70
2022/09/30 04:33:44;;;;;;;20.65;13.77;;;5.60;99.90;;;;;;5010583;28;20612;-69
2022/09/30 04:36:13;;;;;;;20.30;13.93;;;5.60;99.90;;;;;;5018568;28;20220;-69
2022/09/30 04:38:42;;;;;;;23.60;14.52;;;5.60;99.90;;;;;;5010518;28;20201;-69
2022/09/30 04:41:16;;;;;;;19.15;12.45;;;5.60;99.90;;;;;;5016573;28;20186;-68
2022/09/30 04:43:46;;;;;;;19.92;11.30;;;5.60;99.90;;;;;;5016378;28;20276;-69
2022/09/30 04:46:15;;;;;;;19.65;12.95;;;5.60;99.90;;;;;;5014891;28;20232;-69
2022/09/30 04:48:47;;;;;;;19.27;11.73;;;5.60;99.90;;;;;;5014549;28;20296;-69
2022/09/30 04:51:17;;;;;;;20.80;12.05;;;5.60;99.90;;;;;;5014629;28;20194;-69
2022/09/30 04:53:46;;;;;;;18.88;12.32;;;5.70;99.90;;;;;;5014772;28;20181;-69
2022/09/30 04:56:17;;;;;;;19.48;13.82;;;5.70;99.90;;;;;;5015012;28;20205;-69
2022/09/30 04:58:46;;;;;;;21.48;12.00;;;5.80;99.90;;;;;;5015832;28;20181;-70
2022/09/30 05:01:16;;;;;;;17.15;12.00;;;5.80;99.90;;;;;;5014523;28;20264;-70
2022/09/30 05:03:46;;;;;;;20.67;10.75;;;5.90;99.90;;;;;;5013916;28;20194;-70
2022/09/30 05:06:14;;;;;;;19.60;12.48;;;5.80;99.90;;;;;;5006489;28;20698;-69
2022/09/30 05:08:43;;;;;;;18.80;11.75;;;5.80;99.90;;;;;;5013199;28;20201;-69
2022/09/30 05:11:17;;;;;;;16.45;11.73;;;5.90;99.90;;;;;;5012977;28;20220;-68
2022/09/30 05:13:46;;;;;;;18.15;10.35;;;5.90;99.90;;;;;;5012974;28;20244;-69
2022/09/30 05:16:16;;;;;;;15.88;11.75;;;6.00;99.90;;;;;;5013003;28;20785;-70
2022/09/30 05:18:45;;;;;;;12.75;9.30;;;5.90;99.90;;;;;;5011649;28;20225;-71
2022/09/30 05:21:15;;;;;;;14.15;9.93;;;5.90;99.90;;;;;;5013114;28;20631;-68
2022/09/30 05:23:44;;;;;;;14.50;9.75;;;6.00;99.90;;;;;;5013062;28;20638;-69
2022/09/30 05:26:13;;;;;;;26.70;10.45;;;5.90;99.90;;;;;;5012750;28;20210;-69
2022/09/30 05:28:43;;;;;;;14.63;12.07;;;5.90;99.90;;;;;;5012675;28;20190;-71
2022/09/30 05:31:12;;;;;;;13.82;10.90;;;6.00;99.90;;;;;;5013166;28;20201;-69
2022/09/30 05:33:41;;;;;;;14.32;10.52;;;6.00;99.90;;;;;;5013408;28;20831;-69
2022/09/30 05:36:14;;;;;;;15.68;10.65;;;6.10;99.90;;;;;;5009322;28;20219;-70
2022/09/30 05:38:43;;;;;;;20.52;11.95;;;6.10;99.90;;;;;;5003997;28;20556;-70
2022/09/30 05:41:13;;;;;;;16.38;11.68;;;6.10;99.90;;;;;;5012903;28;20194;-69
2022/09/30 05:43:46;;;;;;;19.05;10.82;;;6.00;99.90;;;;;;5012551;28;20194;-70
2022/09/30 05:46:15;;;;;;;20.05;11.45;;;6.10;99.90;;;;;;5008174;28;20219;-70
2022/09/30 05:48:44;;;;;;;19.48;11.95;;;6.20;99.90;;;;;;5004279;28;20683;-71
2022/09/30 05:51:13;;;;;;;19.40;12.88;;;6.20;99.90;;;;;;5012887;28;20198;-70
2022/09/30 05:53:42;;;;;;;28.98;12.30;;;6.20;99.90;;;;;;5012779;28;20198;-70
2022/09/30 05:56:11;;;;;;;29.00;11.88;;;6.30;99.90;;;;;;5013425;28;20298;-70
2022/09/30 05:58:40;;;;;;;21.35;12.13;;;6.30;99.90;;;;;;5047130;22;20284;-70
2022/09/30 06:01:12;;;;;;;20.25;10.93;;;6.40;99.90;;;;;;5015745;28;20264;-70
2022/09/30 06:03:45;;;;;;;21.80;11.18;;;6.40;99.90;;;;;;5012467;28;20627;-69
2022/09/30 06:06:14;;;;;;;12.65;11.10;;;6.40;99.90;;;;;;5017055;28;20197;-70
2022/09/30 06:08:43;;;;;;;15.73;10.75;;;6.40;99.90;;;;;;5016474;28;20221;-70
2022/09/30 06:11:13;;;;;;;15.10;11.57;;;6.60;99.90;;;;;;5021295;22;20313;-70
2022/09/30 06:13:42;;;;;;;19.15;12.82;;;6.60;99.90;;;;;;4973785;28;20208;-69
2022/09/30 06:16:13;;;;;;;22.65;12.00;;;6.80;99.90;;;;;;4952595;28;20223;-69
2022/09/30 06:18:42;;;;;;;15.88;12.77;;;6.80;99.90;;;;;;4972260;28;20226;-70
2022/09/30 06:21:12;;;;;;;15.63;12.25;;;7.00;99.90;;;;;;4964058;28;20674;-70
2022/09/30 06:23:45;;;;;;;19.10;10.40;;;7.10;99.90;;;;;;4982958;28;20197;-70
2022/09/30 06:26:14;;;;;;;16.95;11.93;;;7.20;99.90;;;;;;4979019;28;20215;-69
2022/09/30 06:28:43;;;;;;;13.32;9.73;;;7.30;99.90;;;;;;4984215;28;20197;-69
2022/09/30 06:31:13;;;;;;;13.20;9.25;;;7.50;99.90;;;;;;4977243;28;20206;-69
2022/09/30 06:34:09;;;;;;;13.95;11.95;;;7.70;99.90;;;;;;4965318;28;20239;-68
2022/09/30 06:36:37;;;;;;;12.23;10.40;;;7.90;99.90;;;;;;4978334;28;20198;-69
2022/09/30 06:42:37;;;;;;;12.93;9.70;;;8.20;99.90;;;;;;4971406;28;20199;-68
2022/09/30 06:45:14;;;;;;;16.90;11.88;;;8.40;99.90;;;;;;4965632;28;20313;-69
2022/09/30 06:48:00;;;;;;;15.95;9.88;;;8.60;99.90;;;;;;4987388;28;20777;-70
2022/09/30 06:50:29;;;;;;;14.18;8.65;;;8.90;99.90;;;;;;4984137;28;20561;-70
2022/09/30 06:52:59;;;;;;;13.95;10.05;;;9.20;99.90;;;;;;4980935;28;20187;-70
2022/09/30 06:55:29;;;;;;;13.60;9.10;;;9.30;99.90;;;;;;4987336;28;20293;-70
2022/09/30 06:57:57;;;;;;;12.03;8.90;;;9.30;99.90;;;;;;4987820;28;20194;-71
2022/09/30 07:00:27;;;;;;;9.90;8.57;;;9.40;99.90;;;;;;4977718;28;20431;-72
2022/09/30 07:02:56;;;;;;;13.17;10.63;;;9.60;99.90;;;;;;4977375;28;20954;-70
2022/09/30 07:05:26;;;;;;;15.70;10.93;;;9.70;99.90;;;;;;4977098;28;20460;-70
2022/09/30 07:07:55;;;;;;;12.83;9.30;;;10.00;1.00;;;;;;4985813;28;20431;-70
2022/09/30 07:10:23;;;;;;;12.87;10.53;;;10.00;99.90;;;;;;4978150;28;20540;-71
2022/09/30 07:12:52;;;;;;;18.40;10.23;;;10.00;1.00;;;;;;4971764;28;20434;-71
2022/09/30 07:15:22;;;;;;;14.00;9.77;;;10.00;1.00;;;;;;4974322;28;20768;-70
2022/09/30 07:17:55;;;;;;;12.27;9.50;;;10.20;1.00;;;;;;4965545;28;20428;-70
2022/09/30 07:20:24;;;;;;;10.10;9.10;;;10.30;99.90;;;;;;4970192;28;20912;-70
2022/09/30 07:22:57;;;;;;;13.73;9.63;;;10.50;28.80;;;;;;4982308;28;20415;-70
2022/09/30 07:25:26;;;;;;;9.87;8.67;;;10.50;1.00;;;;;;4975203;28;20965;-70
2022/09/30 07:27:55;;;;;;;12.97;11.07;;;10.50;1.00;;;;;;4980464;28;20418;-71
2022/09/30 07:30:23;;;;;;;15.60;11.10;;;10.50;1.00;;;;;;4984109;28;20444;-70
2022/09/30 07:32:54;;;;;;;17.87;13.10;;;10.80;1.00;;;;;;4975873;28;20433;-70
2022/09/30 07:35:23;;;;;;;10.97;9.10;;;10.90;1.00;;;;;;4982121;28;20432;-69
2022/09/30 07:37:51;;;;;;;18.33;10.93;;;11.00;1.00;;;;;;4977603;28;20427;-70
2022/09/30 07:40:21;;;;;;;13.97;11.40;;;11.10;99.90;;;;;;4973790;28;20524;-69
2022/09/30 07:42:49;;;;;;;12.93;11.10;;;11.20;99.90;;;;;;4982018;28;20748;-69
2022/09/30 07:45:18;;;;;;;12.80;10.37;;;11.40;1.00;;;;;;4992479;28;20428;-69
2022/09/30 07:47:47;;;;;;;12.80;10.97;;;11.50;1.00;;;;;;4979568;28;20432;-70
2022/09/30 07:50:21;;;;;;;12.80;10.50;;;11.90;1.00;;;;;;4975126;28;20465;-71
2022/09/30 07:52:49;;;;;;;13.10;11.33;;;12.00;99.90;;;;;;4968138;28;20405;-71
2022/09/30 07:55:18;;;;;;;11.77;9.67;;;12.10;99.90;;;;;;4955509;28;20422;-68
2022/09/30 07:57:48;;;;;;;15.50;11.00;;;12.10;99.90;;;;;;4982282;28;20415;-69
2022/09/30 08:00:17;;;;;;;11.70;9.80;;;12.20;99.90;;;;;;4974970;28;20774;-69
2022/09/30 08:03:05;;;;;;;16.13;9.47;;;12.30;99.90;;;;;;4972566;28;20409;-69
2022/09/30 08:05:39;;;;;;;15.73;10.53;;;12.40;99.90;;;;;;4977337;28;20614;-70
2022/09/30 08:08:07;;;;;;;13.43;9.40;;;12.40;99.90;;;;;;4972743;28;20411;-69
2022/09/30 08:10:36;;;;;;;12.07;9.70;;;12.60;99.90;;;;;;4975910;28;20473;-69
2022/09/30 08:13:06;;;;;;;19.10;10.87;;;12.60;99.90;;;;;;4984896;28;20783;-69
2022/09/30 08:15:35;;;;;;;17.23;10.43;;;12.80;99.90;;;;;;4983175;28;20527;-68
2022/09/30 08:18:03;;;;;;;13.20;10.10;;;13.00;99.90;;;;;;4986854;28;20430;-68
2022/09/30 08:21:22;;;;;;;14.00;10.60;;;13.00;99.90;;;;;;4984578;28;20484;-69
2022/09/30 08:23:52;;;;;;;12.70;9.80;;;13.10;99.90;;;;;;4983286;28;20621;-69
2022/09/30 08:26:21;;;;;;;13.57;10.93;;;13.20;99.90;;;;;;4985040;28;20482;-70
2022/09/30 08:33:10;;;;;;;12.70;10.80;;;13.40;99.90;;;;;;4974996;28;20752;-69
2022/09/30 08:39:10;;;;;;;15.03;10.80;;;13.80;99.90;;;;;;4950567;28;20424;-69
2022/09/30 08:42:00;;;;;;;14.40;10.87;;;13.80;99.90;;;;;;4966857;28;20420;-69
2022/09/30 08:44:46;;;;;;;12.53;10.73;;;13.90;99.90;;;;;;4974943;28;20458;-69
2022/09/30 08:47:36;;;;;;;12.07;10.87;;;14.00;99.90;;;;;;4973247;28;20414;-68
2022/09/30 08:50:15;;;;;;;13.43;9.57;;;14.00;99.90;;;;;;4981200;28;20412;-69
2022/09/30 08:52:47;;;;;;;15.23;10.97;;;14.10;99.90;;;;;;4967791;28;20410;-69
2022/09/30 08:55:22;;;;;;;12.00;10.07;;;14.00;99.90;;;;;;4973581;28;20510;-69
2022/09/30 08:57:52;;;;;;;12.90;9.50;;;14.00;99.90;;;;;;4972180;28;20443;-69
2022/09/30 09:00:21;;;;;;;18.83;9.80;;;14.30;98.70;;;;;;4971259;28;20522;-70
2022/09/30 09:02:53;;;;;;;17.10;12.47;;;14.30;96.60;;;;;;4973137;28;20905;-70
2022/09/30 09:05:37;;;;;;;14.00;10.47;;;14.30;99.30;;;;;;4970543;28;20450;-70
2022/09/30 09:08:13;;;;;;;14.57;10.30;;;14.40;97.70;;;;;;4976999;28;20448;-70
2022/09/30 09:10:46;;;;;;;11.77;10.57;;;14.50;92.40;;;;;;4967033;28;20502;-70
2022/09/30 09:13:30;;;;;;;15.03;10.13;;;14.50;88.70;;;;;;4974758;28;20405;-69
2022/09/30 09:16:07;;;;;;;12.53;10.60;;;14.50;85.80;;;;;;4970760;28;20470;-72
2022/09/30 09:18:59;;;;;;;13.10;10.47;;;14.70;78.30;;;;;;4966306;28;20414;-68
2022/09/30 09:21:40;;;;;;;10.47;9.47;;;14.80;69.30;;;;;;4976071;28;20400;-69
2022/09/30 09:24:16;;;;;;;9.67;8.67;;;14.90;65.80;;;;;;4966680;28;20458;-68
2022/09/30 09:26:44;;;;;;;11.90;9.50;;;14.80;57.30;;;;;;4976412;28;20401;-69
2022/09/30 09:29:27;;;;;;;11.33;9.67;;;14.90;57.20;;;;;;4966783;28;20413;-70
2022/09/30 09:31:57;;;;;;;12.10;9.80;;;15.00;56.30;;;;;;4974242;28;20489;-69
2022/09/30 09:34:26;;;;;;;10.37;8.70;;;15.10;56.40;;;;;;4968845;28;20454;-69
2022/09/30 09:37:08;;;;;;;13.90;10.50;;;15.20;52.70;;;;;;4965569;28;20430;-69
2022/09/30 09:40:00;;;;;;;12.90;10.70;;;15.20;48.70;;;;;;4973176;28;20401;-71
2022/09/30 09:42:49;;;;;;;10.57;8.43;;;15.30;48.20;;;;;;4971159;28;20488;-71
2022/09/30 09:45:26;;;;;;;12.70;10.60;;;15.40;51.10;;;;;;4955124;28;20929;-71
2022/09/30 09:47:56;;;;;;;10.57;9.47;;;15.60;43.10;;;;;;4992325;28;20459;-71
2022/09/30 09:50:31;;;;;;;10.30;8.60;;;15.60;38.20;;;;;;4983961;28;20445;-73
2022/09/30 09:53:27;;;;;;;9.50;8.50;;;15.80;37.80;;;;;;4972430;28;20460;-71
2022/09/30 09:55:59;;;;;;;9.43;7.67;;;15.80;34.00;;;;;;4973943;28;20544;-70
2022/09/30 09:58:27;;;;;;;9.73;8.27;;;15.80;28.60;;;;;;4974423;28;20394;-72
2022/09/30 10:01:30;;;;;;;9.60;7.37;;;15.80;28.30;;;;;;4973615;28;20609;-72
2022/09/30 10:04:15;;;;;;;10.20;8.17;;;15.80;26.20;;;;;;4979601;28;20416;-71
2022/09/30 10:06:53;;;;;;;9.73;7.93;;;15.90;26.10;;;;;;4981974;28;20416;-70
2022/09/30 10:09:29;;;;;;;9.27;8.17;;;16.10;23.50;;;;;;4987448;28;20409;-68
2022/09/30 10:12:27;;;;;;;9.60;7.00;;;16.20;21.50;;;;;;4991675;28;20477;-70
2022/09/30 10:15:02;;;;;;;8.90;7.27;;;16.10;18.90;;;;;;5002309;28;20490;-70
2022/09/30 10:17:33;;;;;;;10.00;8.50;;;16.20;19.00;;;;;;4990155;28;20433;-70
2022/09/30 10:20:06;;;;;;;9.63;6.97;;;16.30;17.00;;;;;;4982276;28;20428;-68
2022/09/30 10:22:36;;;;;;;14.10;7.03;;;16.30;14.80;;;;;;4981516;28;20459;-69
2022/09/30 10:25:19;;;;;;;6.80;6.10;;;16.30;13.80;;;;;;4976055;28;20470;-70
2022/09/30 10:27:51;;;;;;;18.20;7.17;;;16.40;12.60;;;;;;4969991;28;20425;-69
2022/09/30 10:30:40;;;;;;;7.27;6.50;;;16.60;9.90;;;;;;4968359;28;20431;-71
2022/09/30 10:33:30;;;;;;;8.43;7.53;;;16.70;9.80;;;;;;4968858;28;21023;-72
2022/09/30 10:36:10;;;;;;;7.97;6.67;;;16.70;7.60;;;;;;4969508;28;20557;-70
2022/09/30 10:38:48;;;;;;;5.90;5.30;;;16.60;4.70;;;;;;4979396;28;20400;-69
2022/09/30 10:41:25;;;;;;;6.77;6.00;;;16.50;4.90;;;;;;4986940;28;20930;-70
2022/09/30 10:43:56;;;;;;;8.70;6.97;;;16.70;5.30;;;;;;4976311;28;20434;-69
2022/09/30 10:46:28;;;;;;;8.33;5.50;;;16.80;5.00;;;;;;4976658;28;20535;-70
2022/09/30 10:48:59;;;;;;;6.03;5.23;;;16.90;2.50;;;;;;4988579;28;20438;-71
2022/09/30 10:51:35;;;;;;;5.73;5.23;;;17.00;1.00;;;;;;4980624;28;20921;-67
2022/09/30 10:54:05;;;;;;;9.37;5.90;;;17.00;1.00;;;;;;4972817;28;20473;-71
2022/09/30 10:56:41;;;;;;;6.20;5.00;;;17.10;1.00;;;;;;4977329;28;20553;-70
2022/09/30 10:59:31;;;;;;;19.20;6.93;;;17.20;1.00;;;;;;4972413;28;20429;-71
2022/09/30 11:02:11;;;;;;;5.37;4.87;;;17.30;1.00;;;;;;4969348;28;20429;-71
2022/09/30 11:04:46;;;;;;;8.63;5.60;;;17.50;1.00;;;;;;4991568;28;20458;-71
2022/09/30 11:07:22;;;;;;;5.33;4.83;;;17.40;1.00;;;;;;4976119;28;20430;-71
2022/09/30 11:09:56;;;;;;;5.57;4.70;;;17.30;1.00;;;;;;4975200;28;20525;-68
2022/09/30 11:12:35;;;;;;;7.13;5.90;;;17.20;1.00;;;;;;4972182;28;20470;-70
2022/09/30 11:15:13;;;;;;;7.80;7.00;;;17.20;1.00;;;;;;4965988;28;20912;-70
2022/09/30 11:17:50;;;;;;;9.77;6.60;;;17.10;1.00;;;;;;4971087;28;20425;-70
2022/09/30 11:20:22;;;;;;;6.23;5.63;;;17.00;1.00;;;;;;4976434;28;20432;-69
2022/09/30 11:22:58;;;;;;;6.27;5.67;;;17.20;1.00;;;;;;4977670;28;20457;-71
2022/09/30 11:25:35;;;;;;;5.17;4.20;;;17.10;1.00;;;;;;4971673;28;20770;-69
2022/09/30 11:28:21;;;;;;;8.67;4.57;;;17.10;1.00;;;;;;4987737;28;20405;-69
2022/09/30 11:30:58;;;;;;;6.70;5.07;;;17.20;1.00;;;;;;4978011;28;20442;-70
2022/09/30 11:33:42;;;;;;;5.20;4.70;;;17.30;1.00;;;;;;4974567;28;20483;-69
2022/09/30 11:36:18;;;;;;;7.33;5.77;;;17.10;1.00;;;;;;4963692;28;20431;-71
2022/09/30 11:39:06;;;;;;;6.17;5.50;;;17.20;1.00;;;;;;4976395;28;20401;-71
2022/09/30 11:41:38;;;;;;;4.40;4.00;;;17.20;1.00;;;;;;4969438;28;21009;-70
2022/09/30 11:44:22;;;;;;;4.57;4.17;;;17.40;1.00;;;;;;4971076;28;20405;-71
2022/09/30 11:47:21;;;;;;;6.37;5.10;;;17.50;1.00;;;;;;4966112;28;20416;-71
2022/09/30 11:50:15;;;;;;;4.60;3.70;;;17.80;1.00;;;;;;4968926;28;20422;-69
2022/09/30 11:52:55;;;;;;;4.87;4.37;;;17.80;1.00;;;;;;4986010;28;20436;-70
2022/09/30 11:55:46;;;;;;;6.03;5.53;;;17.70;1.00;;;;;;4982851;28;20461;-70
2022/09/30 11:58:18;;;;;;;4.40;3.97;;;17.70;1.00;;;;;;4982613;28;20763;-70
2022/09/30 12:01:21;;;;;;;7.37;4.50;;;17.70;1.00;;;;;;4990014;28;20510;-72
2022/09/30 12:03:58;;;;;;;6.63;4.50;;;17.90;1.00;;;;;;4975540;28;20426;-71
2022/09/30 12:06:34;;;;;;;6.20;4.87;;;18.20;1.00;;;;;;4973604;28;20402;-69
2022/09/30 12:09:09;;;;;;;4.67;3.97;;;18.20;1.00;;;;;;4987156;28;20421;-73
2022/09/30 12:11:45;;;;;;;5.53;4.27;;;18.30;1.00;;;;;;4985352;28;20975;-70
2022/09/30 12:14:19;;;;;;;5.17;4.00;;;18.30;1.00;;;;;;4976111;28;20547;-70
2022/09/30 12:16:50;;;;;;;6.10;4.10;;;18.30;1.00;;;;;;4992017;28;20540;-70
2022/09/30 12:19:25;;;;;;;3.90;3.00;;;18.30;1.00;;;;;;4963672;28;20438;-72
2022/09/30 12:21:59;;;;;;;6.63;4.30;;;18.40;1.00;;;;;;4966809;28;20984;-70
2022/09/30 12:24:35;;;;;;;3.87;3.20;;;18.30;1.00;;;;;;4986059;28;20462;-72
2022/09/30 12:27:05;;;;;;;3.67;3.03;;;18.40;1.00;;;;;;4980970;28;20524;-69
2022/09/30 12:32:55;;;;;;;4.73;2.57;;;18.50;1.00;;;;;;4990744;28;20469;-70
2022/09/30 12:35:43;;;;;;;4.30;2.93;;;18.50;1.00;;;;;;4975460;28;20452;-72
2022/09/30 12:38:34;;;;;;;4.40;3.23;;;18.60;1.00;;;;;;4974229;28;20834;-69
2022/09/30 12:41:13;;;;;;;3.13;2.47;;;18.40;1.00;;;;;;4969794;28;20785;-72
2022/09/30 12:44:04;;;;;;;2.77;2.50;;;18.30;1.00;;;;;;4977097;28;20516;-71
2022/09/30 12:47:02;;;;;;;2.17;1.80;;;18.30;1.00;;;;;;4979791;28;20430;-70
2022/09/30 12:49:34;;;;;;;3.70;2.07;;;18.60;1.00;;;;;;4977483;28;20485;-69
2022/09/30 12:52:06;;;;;;;3.33;2.80;;;18.60;1.00;;;;;;4970958;28;20459;-70
2022/09/30 12:54:37;;;;;;;3.33;2.03;;;18.70;1.00;;;;;;4977168;28;20490;-70
2022/09/30 12:57:09;;;;;;;3.57;2.83;;;18.90;1.00;;;;;;4973021;28;20501;-71
2022/09/30 12:59:45;;;;;;;3.57;2.43;;;18.60;1.00;;;;;;4973975;28;20456;-72
2022/09/30 13:02:28;;;;;;;3.43;2.43;;;18.50;1.00;;;;;;4981513;28;20454;-70
2022/09/30 13:05:38;;;;;;;3.23;2.30;;;18.30;1.00;;;;;;4973385;28;20476;-70
2022/09/30 13:08:22;;;;;;;2.70;2.50;;;18.30;1.00;;;;;;4974289;28;20409;-71
2022/09/30 13:10:58;;;;;;;2.47;2.07;;;18.40;1.00;;;;;;4983513;28;20404;-70
2022/09/30 13:13:29;;;;;;;2.83;2.10;;;18.40;1.00;;;;;;4978929;28;20465;-71
2022/09/30 13:16:02;;;;;;;3.30;2.70;;;18.50;1.00;;;;;;4987593;28;20429;-71
2022/09/30 13:18:59;;;;;;;2.60;2.23;;;18.60;1.00;;;;;;4987165;28;20545;-71
2022/09/30 13:21:30;;;;;;;3.43;3.13;;;18.90;1.00;;;;;;4973272;28;20984;-68
2022/09/30 13:24:00;;;;;;;3.40;2.20;;;18.80;1.00;;;;;;4971611;28;20435;-70
2022/09/30 13:26:38;;;;;;;3.90;2.07;;;18.50;1.00;;;;;;4991967;28;20482;-70
2022/09/30 13:29:43;;;;;;;3.90;2.43;;;18.50;1.00;;;;;;4974770;28;20466;-73
2022/09/30 13:32:11;;;;;;;7.33;2.77;;;18.40;1.00;;;;;;4968697;28;20509;-71
2022/09/30 13:34:55;;;;;;;4.93;2.83;;;18.70;1.00;;;;;;4971885;28;20478;-71
2022/09/30 13:37:39;;;;;;;3.20;2.90;;;18.80;1.00;;;;;;4986047;28;20484;-71
2022/09/30 13:40:25;;;;;;;4.20;1.63;;;18.90;1.00;;;;;;4980191;28;20426;-70